createdAt,value
2019-02-27T00:01:54.960Z,26.33
2019-02-27T00:04:24.439Z,19.85
2019-02-27T00:06:53.947Z,20.55
2019-02-27T00:09:23.390Z,18.10
2019-02-27T00:11:52.953Z,19.80
2019-02-27T00:14:22.412Z,19.15
2019-02-27T00:16:51.945Z,17.95
2019-02-27T00:19:21.769Z,17.25
2019-02-27T00:21:51.304Z,18.67
2019-02-27T00:24:20.803Z,17.62
2019-02-27T00:26:50.322Z,21.07
2019-02-27T00:29:19.786Z,22.75
2019-02-27T00:31:49.386Z,18.05
2019-02-27T00:34:19.141Z,20.37
2019-02-27T00:36:48.705Z,18.15
2019-02-27T00:39:18.363Z,19.75
2019-02-27T00:41:47.827Z,17.12
2019-02-27T00:44:17.336Z,19.95
2019-02-27T00:46:47.173Z,14.53
2019-02-27T00:49:16.664Z,17.32
2019-02-27T00:51:46.280Z,21.07
2019-02-27T00:54:15.753Z,19.17
2019-02-27T00:56:45.715Z,19.17
2019-02-27T00:59:15.310Z,22.27
2019-02-27T01:01:47.288Z,16.93
2019-02-27T01:04:15.937Z,18.80
2019-02-27T01:06:47.443Z,17.50
2019-02-27T01:09:17.010Z,14.05
2019-02-27T01:11:48.967Z,16.77
2019-02-27T01:14:17.651Z,17.05
2019-02-27T01:16:47.665Z,17.37
2019-02-27T01:19:18.670Z,20.32
2019-02-27T01:21:48.146Z,18.98
2019-02-27T01:24:18.099Z,17.17
2019-02-27T01:26:47.741Z,19.98
2019-02-27T01:29:18.081Z,14.18
2019-02-27T01:31:51.670Z,15.68
2019-02-27T01:34:21.156Z,18.90
2019-02-27T01:36:50.636Z,18.77
2019-02-27T01:39:20.105Z,17.73
2019-02-27T01:41:49.585Z,18.25
2019-02-27T01:44:19.073Z,16.57
2019-02-27T01:46:48.778Z,16.50
2019-02-27T01:49:18.250Z,17.82
2019-02-27T01:51:47.765Z,24.20
2019-02-27T01:54:17.553Z,21.60
2019-02-27T01:56:47.029Z,20.82
2019-02-27T01:59:17.604Z,19.98
2019-02-27T02:01:47.407Z,21.93
2019-02-27T02:04:20.066Z,22.00
2019-02-27T02:06:48.076Z,21.50
2019-02-27T02:09:40.158Z,25.20
2019-02-27T02:12:30.785Z,21.90
2019-02-27T02:15:19.869Z,18.27
2019-02-27T02:18:30.098Z,20.12
2019-02-27T02:21:25.530Z,17.92
2019-02-27T02:24:33.184Z,17.00
2019-02-27T02:27:42.627Z,19.60
2019-02-27T02:30:40.735Z,16.82
2019-02-27T02:33:30.379Z,20.57
2019-02-27T02:36:38.150Z,13.48
2019-02-27T02:39:31.093Z,15.08
2019-02-27T02:42:24.694Z,16.45
2019-02-27T02:45:33.114Z,17.80
2019-02-27T02:48:37.139Z,19.23
2019-02-27T02:51:49.135Z,17.98
2019-02-27T02:54:51.299Z,15.03
2019-02-27T02:57:57.769Z,18.15
2019-02-27T03:01:30.453Z,18.55
2019-02-27T03:04:32.685Z,20.40
2019-02-27T03:07:46.150Z,19.57
2019-02-27T03:10:53.296Z,19.57
2019-02-27T03:13:56.250Z,20.68
2019-02-27T03:17:07.052Z,20.10
2019-02-27T03:20:27.769Z,19.42
2019-02-27T03:23:32.685Z,16.52
2019-02-27T03:26:28.530Z,16.95
2019-02-27T03:29:43.964Z,18.62
2019-02-27T03:32:24.237Z,15.53
2019-02-27T03:35:27.546Z,26.10
2019-02-27T03:38:25.405Z,18.37
2019-02-27T03:41:34.810Z,16.17
2019-02-27T03:44:38.248Z,18.15
2019-02-27T03:47:38.359Z,16.77
2019-02-27T03:50:49.549Z,18.75
2019-02-27T03:53:43.382Z,16.02
2019-02-27T03:56:52.296Z,17.20
2019-02-27T04:00:18.238Z,20.57
2019-02-27T04:03:45.147Z,16.85
2019-02-27T04:07:04.470Z,21.20
2019-02-27T04:09:34.037Z,19.25
2019-02-27T04:12:03.505Z,22.42
2019-02-27T04:14:40.089Z,20.72
2019-02-27T04:17:07.305Z,20.35
2019-02-27T04:19:39.394Z,17.92
2019-02-27T04:22:08.127Z,19.90
2019-02-27T04:24:37.622Z,20.40
2019-02-27T04:27:08.284Z,16.90
2019-02-27T04:29:40.829Z,17.17
2019-02-27T04:32:09.524Z,21.35
2019-02-27T04:34:40.150Z,20.75
2019-02-27T04:37:10.141Z,24.00
2019-02-27T04:39:39.629Z,26.82
2019-02-27T04:42:09.180Z,25.20
2019-02-27T04:44:38.941Z,19.35
2019-02-27T04:47:09.113Z,15.38
2019-02-27T04:49:38.592Z,15.98
2019-02-27T04:52:08.185Z,14.75
2019-02-27T04:54:41.341Z,14.83
2019-02-27T04:57:08.906Z,17.02
2019-02-27T04:59:38.365Z,16.48
2019-02-27T05:02:07.953Z,16.62
2019-02-27T05:04:37.429Z,15.03
2019-02-27T05:07:06.940Z,18.37
2019-02-27T05:09:36.721Z,18.27
2019-02-27T05:12:06.281Z,16.20
2019-02-27T05:14:35.821Z,15.75
2019-02-27T05:17:05.297Z,15.50
2019-02-27T05:19:36.903Z,19.32
2019-02-27T05:22:06.105Z,19.77
2019-02-27T05:24:35.725Z,17.55
2019-02-27T05:27:05.287Z,20.25
2019-02-27T05:29:35.203Z,16.80
2019-02-27T05:32:06.135Z,19.20
2019-02-27T05:34:35.741Z,16.00
2019-02-27T05:37:05.993Z,18.25
2019-02-27T05:39:35.640Z,19.27
2019-02-27T05:42:06.446Z,15.20
2019-02-27T05:44:36.540Z,17.85
2019-02-27T05:47:06.049Z,18.07
2019-02-27T05:49:35.697Z,18.07
2019-02-27T05:52:05.221Z,17.77
2019-02-27T05:54:34.765Z,26.95
2019-02-27T05:57:04.349Z,23.22
2019-02-27T05:59:33.937Z,20.65
2019-02-27T06:02:03.478Z,18.65
2019-02-27T06:04:34.540Z,19.30
2019-02-27T06:07:04.322Z,22.75
2019-02-27T06:09:33.910Z,20.37
2019-02-27T06:12:06.638Z,17.48
2019-02-27T06:14:34.752Z,15.60
2019-02-27T06:17:04.283Z,18.95
2019-02-27T06:19:34.366Z,23.60
2019-02-27T06:22:05.848Z,16.42
2019-02-27T06:24:35.189Z,17.23
2019-02-27T06:27:06.416Z,17.95
2019-02-27T06:29:36.358Z,15.98
2019-02-27T06:32:05.895Z,15.93
2019-02-27T06:34:35.630Z,14.55
2019-02-27T06:37:05.178Z,15.88
2019-02-27T06:39:35.004Z,13.95
2019-02-27T06:42:04.624Z,14.98
2019-02-27T06:44:36.636Z,13.13
2019-02-27T06:47:07.145Z,19.00
2019-02-27T06:49:36.783Z,12.47
2019-02-27T06:52:09.016Z,16.77
2019-02-27T06:54:37.860Z,15.53
2019-02-27T06:57:10.097Z,15.53
2019-02-27T06:59:39.574Z,13.65
2019-02-27T07:02:09.072Z,17.25
2019-02-27T07:04:39.511Z,14.03
2019-02-27T07:07:10.241Z,13.95
2019-02-27T07:09:39.704Z,13.70
2019-02-27T07:12:09.155Z,12.43
2019-02-27T07:14:39.202Z,14.30
2019-02-27T07:17:09.619Z,14.60
2019-02-27T07:19:39.062Z,16.70
2019-02-27T07:22:08.862Z,15.85
2019-02-27T07:24:39.894Z,13.70
2019-02-27T07:27:09.471Z,15.43
2019-02-27T07:29:38.940Z,17.98
2019-02-27T07:32:08.484Z,14.33
2019-02-27T07:34:38.142Z,15.38
2019-02-27T07:37:07.654Z,13.50
2019-02-27T07:39:37.126Z,19.30
2019-02-27T07:42:06.668Z,19.37
2019-02-27T07:44:36.195Z,13.72
2019-02-27T07:47:05.783Z,13.18
2019-02-27T07:49:35.602Z,17.70
2019-02-27T07:52:05.160Z,15.32
2019-02-27T07:54:34.757Z,14.55
2019-02-27T07:57:04.360Z,11.63
2019-02-27T07:59:37.942Z,13.40
2019-02-27T08:02:05.048Z,19.62
2019-02-27T08:04:34.574Z,17.67
2019-02-27T08:07:04.164Z,12.60
2019-02-27T08:09:33.777Z,13.65
2019-02-27T08:12:03.378Z,12.30
2019-02-27T08:14:36.799Z,11.65
2019-02-27T08:17:16.765Z,14.55
2019-02-27T08:19:35.569Z,13.83
2019-02-27T08:22:05.248Z,14.23
2019-02-27T08:24:34.825Z,15.58
2019-02-27T08:27:07.143Z,15.40
2019-02-27T08:29:35.796Z,15.63
2019-02-27T08:32:05.579Z,12.30
2019-02-27T08:34:35.417Z,11.73
2019-02-27T08:37:04.935Z,11.27
2019-02-27T08:39:34.709Z,15.00
2019-02-27T08:42:04.268Z,17.37
2019-02-27T08:44:34.181Z,15.47
2019-02-27T08:47:04.338Z,16.43
2019-02-27T08:49:33.975Z,11.57
2019-02-27T08:52:03.556Z,13.23
2019-02-27T08:54:33.192Z,10.17
2019-02-27T08:57:03.011Z,11.50
2019-02-27T08:59:32.460Z,11.07
2019-02-27T09:02:01.938Z,11.40
2019-02-27T09:04:31.401Z,12.00
2019-02-27T09:07:02.815Z,11.07
2019-02-27T09:09:32.305Z,11.10
2019-02-27T09:12:03.143Z,10.67
2019-02-27T09:14:32.780Z,11.80
2019-02-27T09:17:02.446Z,9.40
2019-02-27T09:19:31.930Z,11.77
2019-02-27T09:22:02.414Z,12.60
2019-02-27T09:24:31.966Z,8.83
2019-02-27T09:27:01.617Z,9.40
2019-02-27T09:29:31.074Z,10.23
2019-02-27T09:32:00.637Z,8.63
2019-02-27T09:34:30.186Z,10.63
2019-02-27T09:36:59.725Z,7.70
2019-02-27T09:39:31.252Z,9.33
2019-02-27T09:42:00.391Z,8.30
2019-02-27T09:44:30.012Z,7.93
2019-02-27T09:46:59.655Z,10.03
2019-02-27T09:49:29.134Z,11.30
2019-02-27T09:51:58.761Z,10.30
2019-02-27T09:54:28.234Z,9.30
2019-02-27T09:57:02.051Z,8.37
2019-02-27T09:59:28.889Z,9.70
2019-02-27T10:01:58.761Z,12.53
2019-02-27T10:04:28.999Z,9.00
2019-02-27T10:06:58.701Z,10.73
2019-02-27T10:09:28.186Z,7.50
2019-02-27T10:11:57.697Z,10.33
2019-02-27T10:14:27.260Z,8.50
2019-02-27T10:16:56.781Z,9.80
2019-02-27T10:19:26.920Z,11.13
2019-02-27T10:21:57.308Z,10.93
2019-02-27T10:24:26.788Z,11.07
2019-02-27T10:26:56.218Z,9.07
2019-02-27T10:29:26.031Z,9.00
2019-02-27T10:31:55.514Z,9.37
2019-02-27T10:34:25.001Z,8.33
2019-02-27T10:36:54.486Z,10.37
2019-02-27T10:39:24.052Z,10.13
2019-02-27T10:41:53.581Z,9.30
2019-02-27T10:44:23.166Z,9.20
2019-02-27T10:46:52.579Z,9.57
2019-02-27T10:49:22.469Z,12.47
2019-02-27T10:51:51.965Z,10.40
2019-02-27T10:54:21.518Z,8.27
2019-02-27T10:56:50.993Z,10.97
2019-02-27T10:59:22.231Z,11.57
2019-02-27T11:01:51.675Z,10.20
2019-02-27T11:04:21.198Z,10.70
2019-02-27T11:06:50.720Z,10.70
2019-02-27T11:09:28.323Z,13.53
2019-02-27T11:11:57.852Z,14.63
2019-02-27T11:14:31.703Z,11.37
2019-02-27T11:17:02.035Z,14.73
2019-02-27T11:19:29.919Z,11.73
2019-02-27T11:21:59.333Z,12.60
2019-02-27T11:24:28.777Z,12.87
2019-02-27T11:26:58.651Z,11.20
2019-02-27T11:29:28.075Z,11.53
2019-02-27T11:31:57.579Z,13.13
2019-02-27T11:34:27.563Z,10.53
2019-02-27T11:36:57.283Z,14.70
2019-02-27T11:39:26.809Z,9.60
2019-02-27T11:41:56.343Z,9.97
2019-02-27T11:44:26.064Z,9.70
2019-02-27T11:46:58.934Z,12.50
2019-02-27T11:49:26.797Z,13.10
2019-02-27T11:51:57.094Z,14.23
2019-02-27T11:54:26.736Z,15.70
2019-02-27T11:56:57.014Z,13.47
2019-02-27T11:59:26.738Z,16.53
2019-02-27T12:01:56.361Z,12.60
2019-02-27T12:04:25.855Z,11.00
2019-02-27T12:06:55.325Z,11.67
2019-02-27T12:09:25.042Z,10.83
2019-02-27T12:11:54.620Z,9.60
2019-02-27T12:14:24.258Z,9.60
2019-02-27T12:16:53.777Z,8.80
2019-02-27T12:19:23.298Z,9.90
2019-02-27T12:21:52.857Z,13.90
2019-02-27T12:24:22.445Z,16.10
2019-02-27T12:26:51.870Z,10.60
2019-02-27T12:29:21.356Z,9.43
2019-02-27T12:31:50.921Z,9.03
2019-02-27T12:34:20.408Z,11.13
2019-02-27T12:36:52.410Z,9.60
2019-02-27T12:39:21.081Z,10.17
2019-02-27T12:41:50.620Z,11.60
2019-02-27T12:44:20.117Z,9.37
2019-02-27T12:46:49.540Z,10.83
2019-02-27T12:49:20.055Z,15.47
2019-02-27T12:51:50.393Z,7.77
2019-02-27T12:54:19.886Z,7.17
2019-02-27T12:56:49.342Z,7.30
2019-02-27T12:59:18.957Z,8.87
2019-02-27T13:01:50.921Z,9.77
2019-02-27T13:04:20.036Z,8.60
2019-02-27T13:06:49.754Z,9.57
2019-02-27T13:09:19.360Z,9.50
2019-02-27T13:11:48.849Z,6.70
2019-02-27T13:14:18.367Z,5.97
2019-02-27T13:16:49.584Z,7.23
2019-02-27T13:19:19.048Z,7.80
2019-02-27T13:21:48.564Z,10.70
2019-02-27T13:24:18.150Z,9.53
2019-02-27T13:26:47.601Z,8.27
2019-02-27T13:29:17.087Z,9.30
2019-02-27T13:31:48.431Z,9.10
2019-02-27T13:34:17.945Z,9.40
2019-02-27T13:36:47.450Z,8.43
2019-02-27T13:39:16.894Z,8.27
2019-02-27T13:41:46.747Z,11.80
2019-02-27T13:44:16.249Z,13.30
2019-02-27T13:46:46.178Z,7.47
2019-02-27T13:49:15.665Z,7.10
2019-02-27T13:51:45.198Z,11.30
2019-02-27T13:54:14.849Z,6.93
2019-02-27T13:56:44.338Z,6.50
2019-02-27T13:59:13.953Z,7.60
2019-02-27T14:01:43.535Z,9.20
2019-02-27T14:04:13.001Z,8.37
2019-02-27T14:06:43.587Z,8.40
2019-02-27T14:09:13.940Z,8.17
2019-02-27T14:11:43.529Z,6.60
2019-02-27T14:14:15.136Z,6.90
2019-02-27T14:16:44.284Z,6.00
2019-02-27T14:19:13.785Z,6.17
2019-02-27T14:21:43.328Z,7.70
2019-02-27T14:24:12.992Z,7.63
2019-02-27T14:26:42.453Z,7.30
2019-02-27T14:29:11.933Z,7.20
2019-02-27T14:31:43.429Z,8.40
2019-02-27T14:34:13.048Z,7.93
2019-02-27T14:36:43.113Z,6.03
2019-02-27T14:39:14.701Z,35.73
2019-02-27T14:41:47.891Z,7.00
2019-02-27T14:44:15.729Z,7.40
2019-02-27T14:46:45.771Z,7.93
2019-02-27T14:49:15.349Z,8.13
2019-02-27T14:51:44.671Z,5.60
2019-02-27T14:54:14.054Z,10.40
2019-02-27T14:56:43.759Z,6.67
2019-02-27T14:59:13.799Z,7.40
2019-02-27T15:01:43.384Z,7.97
2019-02-27T15:04:35.951Z,6.93
2019-02-27T15:07:05.596Z,7.50
2019-02-27T15:09:36.398Z,6.67
2019-02-27T15:12:06.704Z,7.97
2019-02-27T15:14:36.317Z,6.20
2019-02-27T15:17:06.078Z,7.33
2019-02-27T15:19:36.441Z,6.90
2019-02-27T15:22:06.590Z,11.47
2019-02-27T15:24:36.463Z,10.30
2019-02-27T15:27:06.101Z,9.03
2019-02-27T15:29:36.949Z,8.60
2019-02-27T15:32:06.690Z,9.43
2019-02-27T15:34:36.458Z,8.83
2019-02-27T15:37:06.285Z,9.93
2019-02-27T15:39:36.034Z,8.10
2019-02-27T15:42:08.750Z,8.90
2019-02-27T15:44:37.433Z,11.50
2019-02-27T15:47:07.359Z,9.30
2019-02-27T15:49:36.962Z,8.10
2019-02-27T15:52:07.783Z,9.27
2019-02-27T15:54:37.376Z,7.87
2019-02-27T15:57:07.124Z,14.17
2019-02-27T15:59:41.708Z,9.33
2019-02-27T16:02:08.804Z,10.17
2019-02-27T16:04:38.701Z,7.70
2019-02-27T16:07:11.208Z,9.83
2019-02-27T16:09:40.219Z,7.83
2019-02-27T16:12:10.035Z,14.83
2019-02-27T16:14:40.267Z,13.17
2019-02-27T16:17:11.135Z,13.93
2019-02-27T16:19:42.110Z,9.67
2019-02-27T16:22:12.333Z,9.83
2019-02-27T16:24:43.919Z,11.73
2019-02-27T16:27:13.648Z,12.97
2019-02-27T16:29:43.334Z,12.70
2019-02-27T16:32:13.466Z,9.97
2019-02-27T16:34:44.128Z,8.63
2019-02-27T16:37:14.576Z,8.70
2019-02-27T16:39:45.711Z,15.07
2019-02-27T16:42:15.697Z,15.43
2019-02-27T16:44:45.618Z,15.87
2019-02-27T16:47:19.386Z,11.80
2019-02-27T16:49:47.233Z,12.47
2019-02-27T16:52:18.282Z,13.80
2019-02-27T16:54:50.627Z,16.40
2019-02-27T16:57:24.123Z,8.93
2019-02-27T16:59:51.190Z,13.23
2019-02-27T17:02:20.943Z,8.67
2019-02-27T17:04:51.502Z,7.30
2019-02-27T17:07:25.593Z,8.40
2019-02-27T17:09:52.429Z,9.57
2019-02-27T17:12:22.119Z,13.97
2019-02-27T17:14:52.195Z,9.93
2019-02-27T17:17:21.982Z,13.17
2019-02-27T17:19:53.018Z,22.67
2019-02-27T17:22:23.885Z,46.47
2019-02-27T17:24:55.200Z,16.17
2019-02-27T17:27:24.952Z,9.50
2019-02-27T17:29:54.620Z,11.83
2019-02-27T17:32:24.305Z,10.00
2019-02-27T17:34:53.876Z,10.13
2019-02-27T17:37:23.626Z,12.13
2019-02-27T17:39:53.229Z,20.70
2019-02-27T17:42:22.980Z,19.80
2019-02-27T17:44:52.725Z,24.13
2019-02-27T17:47:28.565Z,14.00
2019-02-27T17:49:57.412Z,17.47
2019-02-27T17:52:27.951Z,17.97
2019-02-27T17:54:57.631Z,17.30
2019-02-27T17:57:27.284Z,11.50
2019-02-27T17:59:56.844Z,11.10
2019-02-27T18:02:26.397Z,10.70
2019-02-27T18:04:56.001Z,9.83
2019-02-27T18:07:34.068Z,17.63
2019-02-27T18:09:58.344Z,16.33
2019-02-27T18:12:28.373Z,23.07
2019-02-27T18:14:58.070Z,14.33
2019-02-27T18:17:29.154Z,9.37
2019-02-27T18:19:58.884Z,9.53
2019-02-27T18:22:28.519Z,10.70
2019-02-27T18:24:58.151Z,10.33
2019-02-27T18:27:27.748Z,14.80
2019-02-27T18:29:57.300Z,14.17
2019-02-27T18:32:27.090Z,9.03
2019-02-27T18:34:56.676Z,10.67
2019-02-27T18:37:26.562Z,15.87
2019-02-27T18:39:56.141Z,9.73
2019-02-27T18:42:25.917Z,13.40
2019-02-27T18:44:55.591Z,10.10
2019-02-27T18:47:25.249Z,12.70
2019-02-27T18:49:54.756Z,9.83
2019-02-27T18:52:24.489Z,10.00
2019-02-27T18:54:55.519Z,15.70
2019-02-27T18:57:25.494Z,19.20
2019-02-27T18:59:55.121Z,32.20
2019-02-27T19:02:24.794Z,27.00
2019-02-27T19:04:54.349Z,36.47
2019-02-27T19:07:23.938Z,39.37
2019-02-27T19:09:53.467Z,36.10
2019-02-27T19:12:28.429Z,34.23
2019-02-27T19:14:54.732Z,34.93
2019-02-27T19:17:29.431Z,33.47
2019-02-27T19:19:56.002Z,43.37
2019-02-27T19:22:25.976Z,31.50
2019-02-27T19:24:57.467Z,24.30
2019-02-27T19:27:27.253Z,22.03
2019-02-27T19:29:56.762Z,16.27
2019-02-27T19:32:26.367Z,19.60
2019-02-27T19:34:56.056Z,19.77
2019-02-27T19:37:25.721Z,21.80
2019-02-27T19:39:56.361Z,27.30
2019-02-27T19:42:26.777Z,26.87
2019-02-27T19:44:56.350Z,24.77
2019-02-27T19:47:25.978Z,23.43
2019-02-27T19:49:55.548Z,22.77
2019-02-27T19:52:26.952Z,19.53
2019-02-27T19:54:56.736Z,21.37
2019-02-27T19:57:26.947Z,16.87
2019-02-27T19:59:59.113Z,18.80
2019-02-27T20:02:28.188Z,15.73
2019-02-27T20:04:57.897Z,15.27
2019-02-27T20:07:27.572Z,15.43
2019-02-27T20:09:57.237Z,13.87
2019-02-27T20:12:26.833Z,14.43
2019-02-27T20:14:56.585Z,15.00
2019-02-27T20:17:26.629Z,14.57
2019-02-27T20:20:00.466Z,15.50
2019-02-27T20:22:29.117Z,16.93
2019-02-27T20:24:59.022Z,15.57
2019-02-27T20:27:28.767Z,15.53
2019-02-27T20:29:58.363Z,13.70
2019-02-27T20:32:28.644Z,18.23
2019-02-27T20:34:59.837Z,17.83
2019-02-27T20:37:29.592Z,16.40
2019-02-27T20:39:59.509Z,14.90
2019-02-27T20:42:29.190Z,16.03
2019-02-27T20:44:58.781Z,15.60
2019-02-27T20:47:28.323Z,17.70
2019-02-27T20:49:57.943Z,15.83
2019-02-27T20:52:27.400Z,16.13
2019-02-27T20:54:58.937Z,14.57
2019-02-27T20:57:28.597Z,17.60
2019-02-27T21:00:02.178Z,14.70
2019-02-27T21:02:29.246Z,23.73
2019-02-27T21:04:58.780Z,19.90
2019-02-27T21:07:28.269Z,20.07
2019-02-27T21:09:57.675Z,15.97
2019-02-27T21:12:27.057Z,16.80
2019-02-27T21:14:57.906Z,17.37
2019-02-27T21:17:27.583Z,15.37
2019-02-27T21:19:56.939Z,15.03
2019-02-27T21:22:27.776Z,14.33
2019-02-27T21:24:57.813Z,15.23
2019-02-27T21:27:28.535Z,15.17
2019-02-27T21:29:58.336Z,15.07
2019-02-27T21:32:27.758Z,20.13
2019-02-27T21:34:57.147Z,17.57
2019-02-27T21:37:26.620Z,15.93
2019-02-27T21:39:57.130Z,17.80
2019-02-27T21:42:27.123Z,16.10
2019-02-27T21:44:56.538Z,21.83
2019-02-27T21:47:25.937Z,18.00
2019-02-27T21:49:55.337Z,22.22
2019-02-27T21:52:24.712Z,20.30
2019-02-27T21:54:54.265Z,18.77
2019-02-27T21:57:25.618Z,19.70
2019-02-27T21:59:54.773Z,19.40
2019-02-27T22:02:24.192Z,18.57
2019-02-27T22:04:53.718Z,17.00
2019-02-27T22:07:23.385Z,24.35
2019-02-27T22:09:54.203Z,22.30
2019-02-27T22:12:24.081Z,19.30
2019-02-27T22:14:53.921Z,21.27
2019-02-27T22:17:23.423Z,18.52
2019-02-27T22:19:53.870Z,18.20
2019-02-27T22:22:24.252Z,16.85
2019-02-27T22:24:55.547Z,17.48
2019-02-27T22:27:25.905Z,12.68
2019-02-27T22:29:55.943Z,14.28
2019-02-27T22:32:25.528Z,16.42
2019-02-27T22:34:55.157Z,14.50
2019-02-27T22:37:24.652Z,13.60
2019-02-27T22:39:54.184Z,19.90
2019-02-27T22:42:23.665Z,17.95
2019-02-27T22:44:53.509Z,19.20
2019-02-27T22:47:22.997Z,22.22
2019-02-27T22:49:52.555Z,19.82
2019-02-27T22:52:22.166Z,20.12
2019-02-27T22:54:51.646Z,17.62
2019-02-27T22:57:22.872Z,17.35
2019-02-27T22:59:52.544Z,17.35
2019-02-27T23:02:23.897Z,21.90
2019-02-27T23:04:53.313Z,19.73
2019-02-27T23:07:22.838Z,20.27
2019-02-27T23:09:53.198Z,18.48
2019-02-27T23:12:23.001Z,21.48
2019-02-27T23:14:52.999Z,17.98
2019-02-27T23:17:23.350Z,16.52
2019-02-27T23:19:52.803Z,16.25
2019-02-27T23:22:22.456Z,16.50
2019-02-27T23:24:51.889Z,18.37
2019-02-27T23:27:21.461Z,15.45
2019-02-27T23:29:51.131Z,15.05
2019-02-27T23:32:20.663Z,18.50
2019-02-27T23:34:50.316Z,14.38
2019-02-27T23:37:19.881Z,13.35
2019-02-27T23:39:49.364Z,14.73
2019-02-27T23:42:18.980Z,13.85
2019-02-27T23:44:48.440Z,16.23
2019-02-27T23:47:17.950Z,14.90
2019-02-27T23:49:47.402Z,12.07
2019-02-27T23:52:19.287Z,14.27
2019-02-27T23:54:48.276Z,11.13
2019-02-27T23:57:17.819Z,15.50
2019-02-27T23:59:47.297Z,15.23
